createdAt,value
2018-11-20T00:03:20.225Z,3.30
2018-11-20T00:07:14.901Z,3.30
2018-11-20T00:10:56.152Z,3.30
2018-11-20T00:14:43.582Z,3.20
2018-11-20T00:18:33.673Z,3.20
2018-11-20T00:22:16.362Z,3.20
2018-11-20T00:26:03.439Z,3.20
2018-11-20T00:29:33.890Z,3.20
2018-11-20T00:33:07.067Z,3.20
2018-11-20T00:36:54.823Z,3.20
2018-11-20T00:40:35.305Z,3.10
2018-11-20T00:44:07.742Z,3.20
2018-11-20T00:47:53.965Z,3.10
2018-11-20T00:51:35.204Z,3.10
2018-11-20T00:55:31.860Z,3.10
2018-11-20T00:59:13.419Z,3.00
2018-11-20T01:02:51.050Z,3.00
2018-11-20T01:06:32.994Z,3.00
2018-11-20T01:10:18.221Z,3.00
2018-11-20T01:13:51.153Z,3.00
2018-11-20T01:17:24.429Z,3.00
2018-11-20T01:21:18.953Z,2.90
2018-11-20T01:24:59.391Z,2.90
2018-11-20T01:28:39.859Z,2.80
2018-11-20T01:32:15.323Z,2.80
2018-11-20T01:35:51.296Z,2.80
2018-11-20T01:39:37.373Z,2.70
2018-11-20T01:43:19.485Z,2.70
2018-11-20T01:46:55.029Z,2.70
2018-11-20T01:50:29.838Z,2.70
2018-11-20T01:54:00.499Z,2.70
2018-11-20T01:57:36.048Z,2.70
2018-11-20T02:01:16.621Z,2.70
2018-11-20T02:04:57.213Z,2.70
2018-11-20T02:08:32.329Z,2.70
2018-11-20T02:12:10.631Z,2.70
2018-11-20T02:15:59.711Z,2.70
2018-11-20T02:19:42.104Z,2.70
2018-11-20T02:23:31.879Z,2.70
2018-11-20T02:27:17.393Z,2.60
2018-11-20T02:30:57.922Z,2.60
2018-11-20T02:34:48.880Z,2.60
2018-11-20T02:38:29.008Z,2.60
2018-11-20T02:42:06.005Z,2.60
2018-11-20T02:45:38.193Z,2.50
2018-11-20T02:49:20.501Z,2.50
2018-11-20T02:52:53.685Z,2.50
2018-11-20T02:56:27.082Z,2.50
2018-11-20T03:00:07.881Z,2.50
2018-11-20T03:03:44.067Z,2.40
2018-11-20T03:07:25.244Z,2.40
2018-11-20T03:11:25.563Z,2.40
2018-11-20T03:15:10.282Z,2.40
2018-11-20T03:18:43.349Z,2.40
2018-11-20T03:22:24.141Z,2.40
2018-11-20T03:26:07.093Z,2.40
2018-11-20T03:30:30.705Z,2.40
2018-11-20T03:34:12.065Z,2.40
2018-11-20T03:37:52.019Z,2.40
2018-11-20T03:41:32.986Z,2.40
2018-11-20T03:45:13.831Z,2.40
2018-11-20T03:48:47.165Z,2.30
2018-11-20T03:52:23.743Z,2.40
2018-11-20T03:56:02.431Z,2.40
2018-11-20T03:59:37.897Z,2.30
2018-11-20T04:03:13.251Z,2.30
2018-11-20T04:06:54.910Z,2.30
2018-11-20T04:10:31.125Z,2.30
2018-11-20T04:14:04.815Z,2.30
2018-11-20T04:17:46.715Z,2.40
2018-11-20T04:21:18.472Z,2.30
2018-11-20T04:24:58.931Z,2.30
2018-11-20T04:28:29.965Z,2.30
2018-11-20T04:32:16.539Z,2.30
2018-11-20T04:35:50.302Z,2.30
2018-11-20T04:39:26.901Z,2.30
2018-11-20T04:43:14.989Z,2.30
2018-11-20T04:46:55.730Z,2.30
2018-11-20T04:50:27.955Z,2.30
2018-11-20T04:54:13.026Z,2.30
2018-11-20T04:57:57.940Z,2.30
2018-11-20T05:01:53.095Z,2.30
2018-11-20T05:05:50.048Z,2.30
2018-11-20T05:09:30.539Z,2.40
2018-11-20T05:13:03.866Z,2.30
2018-11-20T05:16:36.835Z,2.40
2018-11-20T05:20:16.892Z,2.40
2018-11-20T05:23:57.929Z,2.40
2018-11-20T05:27:51.493Z,2.40
2018-11-20T05:31:33.285Z,2.40
2018-11-20T05:35:15.046Z,2.40
2018-11-20T05:38:46.901Z,2.40
2018-11-20T05:42:27.612Z,2.40
2018-11-20T05:46:07.399Z,2.40
2018-11-20T05:49:48.250Z,2.40
2018-11-20T05:53:29.568Z,2.40
2018-11-20T05:57:02.235Z,2.40
2018-11-20T06:00:35.965Z,2.40
2018-11-20T06:04:08.325Z,2.40
2018-11-20T06:07:48.736Z,2.40
2018-11-20T06:11:30.704Z,2.40
2018-11-20T06:15:24.791Z,2.40
2018-11-20T06:19:05.499Z,2.40
2018-11-20T06:22:39.126Z,2.40
2018-11-20T06:26:13.059Z,2.40
2018-11-20T06:30:04.044Z,2.40
2018-11-20T06:33:44.898Z,2.40
2018-11-20T06:37:19.559Z,2.40
2018-11-20T06:41:00.566Z,2.40
2018-11-20T06:44:40.589Z,2.40
2018-11-20T06:48:31.464Z,2.40
2018-11-20T06:52:16.516Z,2.40
2018-11-20T06:55:59.191Z,2.40
2018-11-20T06:59:33.244Z,2.40
2018-11-20T07:03:15.605Z,2.40
2018-11-20T07:06:54.252Z,2.40
2018-11-20T07:10:42.522Z,2.40
2018-11-20T07:14:33.592Z,2.40
2018-11-20T07:18:03.415Z,2.30
2018-11-20T07:21:36.133Z,2.30
2018-11-20T07:25:16.721Z,2.30
2018-11-20T07:28:57.144Z,2.30
2018-11-20T07:32:48.700Z,2.30
2018-11-20T07:36:32.991Z,2.30
2018-11-20T07:40:12.669Z,2.30
2018-11-20T07:44:00.982Z,2.30
2018-11-20T07:47:55.281Z,2.30
2018-11-20T07:51:36.267Z,2.30
2018-11-20T07:55:13.916Z,2.30
2018-11-20T07:58:46.552Z,2.30
2018-11-20T08:02:20.915Z,2.30
2018-11-20T08:06:05.793Z,2.30
2018-11-20T08:09:46.565Z,2.30
2018-11-20T08:13:37.868Z,2.20
2018-11-20T08:17:26.921Z,2.30
2018-11-20T08:20:55.943Z,2.30
2018-11-20T08:24:37.900Z,2.20
2018-11-20T08:28:19.705Z,2.20
2018-11-20T08:32:00.236Z,2.20
2018-11-20T08:35:35.649Z,2.20
2018-11-20T08:39:24.501Z,2.20
2018-11-20T08:43:05.117Z,2.20
2018-11-20T08:46:55.346Z,2.30
2018-11-20T08:50:33.712Z,2.30
2018-11-20T08:54:06.592Z,2.30
2018-11-20T08:57:48.761Z,2.30
2018-11-20T09:01:29.473Z,2.30
2018-11-20T09:05:18.312Z,2.30
2018-11-20T09:08:49.037Z,2.30
2018-11-20T09:12:29.875Z,2.30
2018-11-20T09:16:23.775Z,2.30
2018-11-20T09:20:04.424Z,2.20
2018-11-20T09:23:45.041Z,2.30
2018-11-20T09:27:33.996Z,2.30
2018-11-20T09:31:13.152Z,2.30
2018-11-20T09:34:55.473Z,2.30
2018-11-20T09:38:31.179Z,2.30
2018-11-20T09:42:04.105Z,2.30
2018-11-20T09:45:58.182Z,2.30
2018-11-20T09:49:30.221Z,2.30
2018-11-20T09:53:09.105Z,2.30
2018-11-20T09:56:43.324Z,2.30
2018-11-20T10:00:24.148Z,2.30
2018-11-20T10:03:56.480Z,2.30
2018-11-20T10:07:41.209Z,2.30
2018-11-20T10:11:21.759Z,2.30
2018-11-20T10:14:53.528Z,2.40
2018-11-20T10:18:28.261Z,2.40
2018-11-20T10:22:08.832Z,2.40
2018-11-20T10:25:45.189Z,2.40
2018-11-20T10:29:47.029Z,2.40
2018-11-20T10:34:02.546Z,2.50
2018-11-20T10:37:29.515Z,2.50
2018-11-20T10:41:09.031Z,2.50
2018-11-20T10:44:48.264Z,2.50
2018-11-20T10:48:25.802Z,2.50
2018-11-20T10:51:58.275Z,2.50
2018-11-20T10:55:39.064Z,2.60
2018-11-20T10:59:18.459Z,2.60
2018-11-20T11:02:58.071Z,2.60
2018-11-20T11:06:37.964Z,2.60
2018-11-20T11:10:03.577Z,2.60
2018-11-20T11:13:52.366Z,2.60
2018-11-20T11:17:31.905Z,2.70
2018-11-20T11:21:03.393Z,2.70
2018-11-20T11:24:35.052Z,2.70
2018-11-20T11:28:06.857Z,2.70
2018-11-20T11:31:47.088Z,2.70
2018-11-20T11:35:26.491Z,2.70
2018-11-20T11:39:10.818Z,2.70
2018-11-20T11:42:50.099Z,2.70
2018-11-20T11:46:31.986Z,2.70
2018-11-20T11:50:11.606Z,2.70
2018-11-20T11:53:51.129Z,2.60
2018-11-20T11:57:30.617Z,2.60
2018-11-20T12:01:10.110Z,2.60
2018-11-20T12:04:50.325Z,2.60
2018-11-20T12:08:26.903Z,2.60
2018-11-20T12:12:03.448Z,2.60
2018-11-20T12:15:51.206Z,2.60
2018-11-20T12:19:42.721Z,2.60
2018-11-20T12:23:23.141Z,2.60
2018-11-20T12:27:00.289Z,2.50
2018-11-20T12:30:40.156Z,2.50
2018-11-20T12:34:20.199Z,2.50
2018-11-20T12:38:03.307Z,2.50
2018-11-20T12:41:46.771Z,2.50
2018-11-20T12:45:46.106Z,2.50
2018-11-20T12:49:32.685Z,2.40
2018-11-20T12:53:25.574Z,2.40
2018-11-20T12:57:02.165Z,2.40
2018-11-20T13:00:48.964Z,2.40
2018-11-20T13:04:49.907Z,2.40
2018-11-20T13:08:36.935Z,2.30
2018-11-20T13:12:16.688Z,2.30
2018-11-20T13:15:56.770Z,2.30
2018-11-20T13:19:41.420Z,2.30
2018-11-20T13:23:25.259Z,2.30
2018-11-20T13:27:01.428Z,2.30
2018-11-20T13:31:00.341Z,2.20
2018-11-20T13:34:41.537Z,2.30
2018-11-20T13:38:29.299Z,2.30
2018-11-20T13:41:59.084Z,2.20
2018-11-20T13:45:36.458Z,2.20
2018-11-20T13:49:20.248Z,2.20
2018-11-20T13:53:00.080Z,2.20
2018-11-20T13:56:56.569Z,2.20
2018-11-20T14:00:35.143Z,2.20
2018-11-20T14:04:05.463Z,2.10
2018-11-20T14:07:45.229Z,2.00
2018-11-20T14:11:23.642Z,2.00
2018-11-20T14:14:53.327Z,2.00
2018-11-20T14:18:33.292Z,2.00
2018-11-20T14:22:11.313Z,1.90
2018-11-20T14:25:48.875Z,1.90
2018-11-20T14:29:24.573Z,1.90
2018-11-20T14:33:04.514Z,1.90
2018-11-20T14:36:45.882Z,1.90
2018-11-20T14:40:24.942Z,1.90
2018-11-20T14:44:06.067Z,1.80
2018-11-20T14:47:46.126Z,1.80
2018-11-20T14:51:29.696Z,1.80
2018-11-20T14:55:09.732Z,1.80
2018-11-20T14:58:48.799Z,1.80
2018-11-20T15:02:29.111Z,1.80
2018-11-20T15:06:08.960Z,1.80
2018-11-20T15:09:41.379Z,1.80
2018-11-20T15:13:24.372Z,1.80
2018-11-20T15:17:08.673Z,1.80
2018-11-20T15:21:05.059Z,1.80
2018-11-20T15:24:43.994Z,1.80
2018-11-20T15:28:21.828Z,1.80
2018-11-20T15:31:55.331Z,1.80
2018-11-20T15:35:43.565Z,1.80
2018-11-20T15:39:14.619Z,1.80
2018-11-20T15:43:01.632Z,1.80
2018-11-20T15:46:41.302Z,1.90
2018-11-20T15:50:21.373Z,1.90
2018-11-20T15:54:00.712Z,1.80
2018-11-20T15:57:40.438Z,1.90
2018-11-20T16:01:27.971Z,1.80
2018-11-20T16:05:02.468Z,1.80
2018-11-20T16:08:42.077Z,1.80
2018-11-20T16:12:17.592Z,1.80
2018-11-20T16:16:00.979Z,1.80
2018-11-20T16:19:40.437Z,1.80
2018-11-20T16:23:21.126Z,1.80
2018-11-20T16:27:00.703Z,1.80
2018-11-20T16:30:59.601Z,1.70
2018-11-20T16:34:40.853Z,1.80
2018-11-20T16:38:24.735Z,1.80
2018-11-20T16:42:07.198Z,1.80
2018-11-20T16:45:41.744Z,1.80
2018-11-20T16:49:12.906Z,1.80
2018-11-20T16:52:55.264Z,1.80
2018-11-20T16:56:34.831Z,1.80
2018-11-20T17:00:28.114Z,1.80
2018-11-20T17:04:08.856Z,1.80
2018-11-20T17:07:58.492Z,1.80
2018-11-20T17:11:37.912Z,1.90
2018-11-20T17:15:18.225Z,1.90
2018-11-20T17:19:09.077Z,1.90
2018-11-20T17:22:48.837Z,1.90
2018-11-20T17:26:28.895Z,1.90
2018-11-20T17:30:08.334Z,1.90
2018-11-20T17:33:48.388Z,1.90
2018-11-20T17:37:28.214Z,1.90
2018-11-20T17:41:06.055Z,1.90
2018-11-20T17:44:40.044Z,1.90
2018-11-20T17:48:20.018Z,1.90
2018-11-20T17:51:56.789Z,1.90
2018-11-20T17:55:46.634Z,1.90
2018-11-20T17:59:26.120Z,1.90
2018-11-20T18:03:18.916Z,1.90
2018-11-20T18:07:13.567Z,2.00
2018-11-20T18:11:07.922Z,1.90
2018-11-20T18:14:35.310Z,2.00
2018-11-20T18:18:23.464Z,2.00
2018-11-20T18:22:00.818Z,2.00
2018-11-20T18:25:38.754Z,2.00
2018-11-20T18:29:25.731Z,2.00
2018-11-20T18:33:05.482Z,2.00
2018-11-20T18:36:46.783Z,1.90
2018-11-20T18:40:26.743Z,1.90
2018-11-20T18:43:56.889Z,2.00
2018-11-20T18:47:36.429Z,2.00
2018-11-20T18:51:08.617Z,2.00
2018-11-20T18:54:58.368Z,2.00
2018-11-20T18:58:33.833Z,2.00
2018-11-20T19:02:24.038Z,2.00
2018-11-20T19:06:14.019Z,2.00
2018-11-20T19:09:47.185Z,2.00
2018-11-20T19:13:43.419Z,2.00
2018-11-20T19:17:23.609Z,2.00
2018-11-20T19:21:06.184Z,2.00
2018-11-20T19:24:45.823Z,2.00
2018-11-20T19:28:44.842Z,2.00
2018-11-20T19:32:13.965Z,2.00
2018-11-20T19:35:55.312Z,2.10
2018-11-20T19:39:51.932Z,2.00
2018-11-20T19:43:31.577Z,2.00
2018-11-20T19:47:11.447Z,2.10
2018-11-20T19:50:57.797Z,2.10
2018-11-20T19:54:29.238Z,2.10
2018-11-20T20:01:46.790Z,2.00
2018-11-20T20:05:20.704Z,2.00
2018-11-20T20:09:00.461Z,2.00
2018-11-20T20:12:47.888Z,2.00
2018-11-20T20:16:31.631Z,2.00
2018-11-20T20:20:11.473Z,2.00
2018-11-20T20:23:42.726Z,2.00
2018-11-20T20:27:35.879Z,2.00
2018-11-20T20:31:16.720Z,2.00
2018-11-20T20:34:52.931Z,2.00
2018-11-20T20:38:27.245Z,2.00
2018-11-20T20:42:04.922Z,2.00
2018-11-20T20:45:44.537Z,2.00
2018-11-20T20:49:23.861Z,2.00
2018-11-20T20:53:04.746Z,2.00
2018-11-20T20:56:44.485Z,2.00
2018-11-20T21:00:34.637Z,2.00
2018-11-20T21:04:03.411Z,2.00
2018-11-20T21:07:43.190Z,2.00
2018-11-20T21:11:11.245Z,2.00
2018-11-20T21:14:51.120Z,2.00
2018-11-20T21:18:33.700Z,2.00
2018-11-20T21:22:09.582Z,2.00
2018-11-20T21:25:48.344Z,2.00
2018-11-20T21:29:27.955Z,2.00
2018-11-20T21:33:05.681Z,2.00
2018-11-20T21:36:45.144Z,2.00
2018-11-20T21:40:42.046Z,2.00
2018-11-20T21:44:21.958Z,2.00
2018-11-20T21:48:21.447Z,2.00
2018-11-20T21:52:12.392Z,1.90
2018-11-20T21:55:44.908Z,1.90
2018-11-20T21:59:28.480Z,1.90
2018-11-20T22:03:09.771Z,1.90
2018-11-20T22:06:49.387Z,1.90
2018-11-20T22:10:28.701Z,1.90
2018-11-20T22:14:24.673Z,1.90
2018-11-20T22:18:14.857Z,1.90
2018-11-20T22:21:54.439Z,1.80
2018-11-20T22:25:33.963Z,1.90
2018-11-20T22:29:11.498Z,1.80
2018-11-20T22:32:52.666Z,1.80
2018-11-20T22:36:39.423Z,1.80
2018-11-20T22:40:14.012Z,1.80
2018-11-20T22:44:04.119Z,1.80
2018-11-20T22:47:54.255Z,1.80
2018-11-20T22:51:35.331Z,1.80
2018-11-20T22:55:14.821Z,1.80
2018-11-20T22:58:47.761Z,1.80
2018-11-20T23:02:30.428Z,1.80
2018-11-20T23:06:09.307Z,1.80
2018-11-20T23:09:30.877Z,1.70
2018-11-20T23:12:53.522Z,1.70
2018-11-20T23:16:15.518Z,1.70
2018-11-20T23:19:37.532Z,1.70
2018-11-20T23:22:59.176Z,1.80
2018-11-20T23:26:21.181Z,1.80
2018-11-20T23:29:43.270Z,1.80
2018-11-20T23:33:06.061Z,1.80
2018-11-20T23:36:27.702Z,1.80
2018-11-20T23:39:49.491Z,1.80
2018-11-20T23:43:11.837Z,1.80
2018-11-20T23:46:34.030Z,1.80
2018-11-20T23:49:55.715Z,1.80
2018-11-20T23:53:17.385Z,1.80
2018-11-20T23:56:39.205Z,1.80
